Time;durP1;ratioP1;P1;durP2;ratioP2;P2;SDS_P1;SDS_P2;PMS_P1;PMS_P2;Temp;Humidity;BMP_temperature;BMP_pressure;BME280_temperature;BME280_humidity;BME280_pressure;Samples;Min_cycle;Max_cycle;Signal;HPM_P1;HPM_P2
2021/11/05 00:01:36;;;;;;;4.23;2.93;;;7.40;99.90;;;;;;5045178;28;20451;-63
2021/11/05 00:04:03;;;;;;;5.43;3.87;;;7.50;99.90;;;;;;5046121;28;21001;-64
2021/11/05 00:06:30;;;;;;;5.27;4.00;;;7.50;99.90;;;;;;5045091;28;20460;-63
2021/11/05 00:08:57;;;;;;;3.37;3.07;;;7.40;99.90;;;;;;5046174;28;20448;-63
2021/11/05 00:11:25;;;;;;;5.57;3.77;;;7.40;99.90;;;;;;5046048;28;20456;-64
2021/11/05 00:13:52;;;;;;;4.43;3.53;;;7.30;99.90;;;;;;5045020;28;20440;-63
2021/11/05 00:16:19;;;;;;;4.90;4.40;;;7.20;99.90;;;;;;5045543;28;20547;-64
2021/11/05 00:18:46;;;;;;;4.00;3.60;;;7.20;99.90;;;;;;5045575;28;20440;-61
2021/11/05 00:21:13;;;;;;;5.63;4.40;;;7.10;99.90;;;;;;5045685;28;20462;-62
2021/11/05 00:23:40;;;;;;;4.47;3.93;;;7.00;99.90;;;;;;5045657;28;20550;-63
2021/11/05 00:26:07;;;;;;;6.33;4.20;;;7.00;99.90;;;;;;5046197;28;20999;-62
2021/11/05 00:28:35;;;;;;;4.80;4.30;;;6.90;99.90;;;;;;5045979;28;20448;-62
2021/11/05 00:31:02;;;;;;;4.77;4.10;;;6.90;99.90;;;;;;5045973;28;20440;-62
2021/11/05 00:33:28;;;;;;;5.27;4.10;;;6.90;99.90;;;;;;5045381;28;20535;-63
2021/11/05 00:35:55;;;;;;;5.77;5.17;;;6.80;99.90;;;;;;5046442;28;20479;-62
2021/11/05 00:38:22;;;;;;;5.50;4.70;;;6.80;99.90;;;;;;5043991;28;20439;-63
2021/11/05 00:40:49;;;;;;;5.13;4.63;;;6.80;99.90;;;;;;5042313;28;20460;-62
2021/11/05 00:43:16;;;;;;;7.97;5.17;;;6.80;99.90;;;;;;5050372;28;20988;-64
2021/11/05 00:45:44;;;;;;;5.23;4.43;;;6.80;99.90;;;;;;5062263;28;20498;-63
2021/11/05 00:48:11;;;;;;;5.83;4.50;;;6.80;99.90;;;;;;5066490;28;20451;-62
2021/11/05 00:50:38;;;;;;;5.00;4.43;;;6.80;99.90;;;;;;5066627;28;20830;-63
2021/11/05 00:53:05;;;;;;;5.40;4.40;;;6.80;99.90;;;;;;5066531;28;20447;-64
2021/11/05 00:55:32;;;;;;;5.30;4.20;;;6.80;99.90;;;;;;5066666;28;20455;-62
2021/11/05 00:57:59;;;;;;;7.30;3.93;;;6.80;99.90;;;;;;5065690;28;20447;-62
2021/11/05 01:00:26;;;;;;;4.93;4.33;;;6.70;99.90;;;;;;5066502;28;20454;-62
2021/11/05 01:02:54;;;;;;;8.90;4.00;;;6.70;99.90;;;;;;5066528;28;20545;-64
2021/11/05 01:05:21;;;;;;;5.53;4.70;;;6.70;99.90;;;;;;5066296;28;21103;-60
2021/11/05 01:07:47;;;;;;;5.37;4.50;;;6.80;99.90;;;;;;5054990;28;21025;-62
2021/11/05 01:10:14;;;;;;;5.97;5.23;;;6.80;99.90;;;;;;5066311;28;20944;-62
2021/11/05 01:12:41;;;;;;;6.60;5.33;;;6.80;99.90;;;;;;5063938;28;20443;-63
2021/11/05 01:15:10;;;;;;;5.50;4.83;;;6.80;99.90;;;;;;5059891;28;20458;-64
2021/11/05 01:17:38;;;;;;;5.57;4.97;;;6.80;99.90;;;;;;5066350;28;20964;-63
2021/11/05 01:20:10;;;;;;;9.37;4.80;;;6.80;99.90;;;;;;5067840;28;20439;-63
2021/11/05 01:22:37;;;;;;;5.30;4.40;;;6.80;99.90;;;;;;5060243;28;20759;-64
2021/11/05 01:25:05;;;;;;;4.80;4.30;;;6.80;99.90;;;;;;5053368;28;20492;-64
2021/11/05 01:27:32;;;;;;;5.60;4.90;;;6.80;99.90;;;;;;5047628;28;20444;-64
2021/11/05 01:29:59;;;;;;;4.63;4.17;;;6.80;99.90;;;;;;5049410;28;20539;-61
2021/11/05 01:32:27;;;;;;;5.53;5.00;;;6.80;99.90;;;;;;5049367;28;20452;-62
2021/11/05 01:34:55;;;;;;;5.83;4.63;;;6.80;99.90;;;;;;5050344;28;20459;-62
2021/11/05 01:37:23;;;;;;;5.20;4.30;;;6.80;99.90;;;;;;5053536;28;20458;-61
2021/11/05 01:39:50;;;;;;;5.63;5.00;;;6.80;99.90;;;;;;5063935;28;20451;-63
2021/11/05 01:42:16;;;;;;;7.30;4.43;;;6.80;99.90;;;;;;5057660;28;20440;-62
2021/11/05 01:44:43;;;;;;;7.97;5.00;;;6.80;99.90;;;;;;5069387;28;20505;-63
2021/11/05 01:47:10;;;;;;;6.23;5.10;;;6.80;99.90;;;;;;5052136;28;20447;-63
2021/11/05 01:49:37;;;;;;;7.80;4.20;;;6.80;99.90;;;;;;5053044;28;20444;-63
2021/11/05 01:52:05;;;;;;;7.20;5.30;;;6.80;99.90;;;;;;5052710;28;20458;-64
2021/11/05 01:54:33;;;;;;;7.00;5.43;;;6.80;99.90;;;;;;5052889;28;20464;-64
2021/11/05 01:57:00;;;;;;;6.20;5.30;;;6.80;99.90;;;;;;5052178;28;20447;-63
2021/11/05 01:59:29;;;;;;;6.27;5.67;;;6.70;99.90;;;;;;5052957;28;20447;-63
2021/11/05 02:01:57;;;;;;;6.83;6.13;;;6.80;99.90;;;;;;5052393;28;20950;-63
2021/11/05 02:04:26;;;;;;;6.57;5.80;;;6.80;99.90;;;;;;5052658;28;20888;-64
2021/11/05 02:06:54;;;;;;;5.90;5.30;;;6.80;99.90;;;;;;5052046;28;20487;-63
2021/11/05 02:09:23;;;;;;;5.97;5.20;;;6.80;99.90;;;;;;5052486;28;20440;-64
2021/11/05 02:11:56;;;;;;;6.47;5.80;;;6.70;99.90;;;;;;5052499;28;20455;-64
2021/11/05 02:14:25;;;;;;;6.80;5.13;;;6.80;99.90;;;;;;5052869;28;20448;-63
2021/11/05 02:16:56;;;;;;;10.30;5.20;;;6.70;99.90;;;;;;5051964;28;20440;-61
2021/11/05 02:19:27;;;;;;;6.77;5.90;;;6.70;99.90;;;;;;5052820;28;20462;-63
2021/11/05 02:21:56;;;;;;;6.57;5.80;;;6.80;99.90;;;;;;5052322;28;20824;-63
2021/11/05 02:24:24;;;;;;;6.47;5.67;;;6.80;99.90;;;;;;5052584;28;20451;-63
2021/11/05 02:26:52;;;;;;;9.10;5.53;;;6.80;99.90;;;;;;5051912;28;20452;-63
2021/11/05 02:29:19;;;;;;;6.53;5.63;;;6.80;99.90;;;;;;5052405;28;20448;-64
2021/11/05 02:31:46;;;;;;;7.93;5.97;;;6.90;99.90;;;;;;5052195;28;20447;-63
2021/11/05 02:34:14;;;;;;;7.30;6.10;;;6.90;99.90;;;;;;5052107;28;20547;-63
2021/11/05 02:36:41;;;;;;;6.60;5.93;;;6.90;99.90;;;;;;5051912;28;20456;-61
2021/11/05 02:39:10;;;;;;;8.60;6.50;;;6.90;99.90;;;;;;5052556;28;20455;-63
2021/11/05 02:41:38;;;;;;;7.60;6.43;;;6.90;99.90;;;;;;5052332;28;20441;-63
2021/11/05 02:44:05;;;;;;;7.37;6.37;;;6.90;99.90;;;;;;5052500;28;20536;-63
2021/11/05 02:46:32;;;;;;;7.23;6.53;;;6.80;99.90;;;;;;5050320;28;21025;-60
2021/11/05 02:49:00;;;;;;;6.57;5.90;;;6.80;99.90;;;;;;5052132;28;20454;-63
2021/11/05 02:51:27;;;;;;;6.67;6.07;;;6.80;99.90;;;;;;5052093;28;20444;-63
2021/11/05 02:53:54;;;;;;;7.70;6.20;;;6.80;99.90;;;;;;5051960;28;20444;-64
2021/11/05 02:56:23;;;;;;;7.10;6.40;;;6.80;99.90;;;;;;5051032;28;20462;-63
2021/11/05 02:58:51;;;;;;;9.40;6.03;;;6.80;99.90;;;;;;5052224;28;20455;-64
2021/11/05 03:01:18;;;;;;;9.23;6.27;;;6.80;99.90;;;;;;5050982;28;21182;-63
2021/11/05 03:03:45;;;;;;;7.10;5.63;;;6.80;99.90;;;;;;5051570;28;20551;-62
2021/11/05 03:06:11;;;;;;;9.23;7.20;;;6.80;99.90;;;;;;5051258;28;20484;-62
2021/11/05 03:08:38;;;;;;;6.97;6.10;;;6.70;99.90;;;;;;5050991;28;20902;-64
2021/11/05 03:11:05;;;;;;;8.17;6.10;;;6.70;99.90;;;;;;5051335;28;20451;-63
2021/11/05 03:13:33;;;;;;;7.37;6.57;;;6.80;99.90;;;;;;5051641;28;20468;-63
2021/11/05 03:16:00;;;;;;;7.77;6.27;;;6.80;99.90;;;;;;5051087;28;20468;-64
2021/11/05 03:18:31;;;;;;;8.23;6.57;;;6.70;99.90;;;;;;5050705;28;20454;-63
2021/11/05 03:20:58;;;;;;;8.40;5.70;;;6.80;99.90;;;;;;5051416;28;20482;-63
2021/11/05 03:23:25;;;;;;;9.10;6.87;;;6.80;99.90;;;;;;5050982;28;20448;-64
2021/11/05 03:25:51;;;;;;;8.60;7.50;;;6.80;99.90;;;;;;5051126;28;20530;-63
2021/11/05 03:28:18;;;;;;;8.27;7.10;;;6.80;99.90;;;;;;5050629;28;20448;-68
2021/11/05 03:30:46;;;;;;;10.10;7.40;;;6.80;99.90;;;;;;5051575;28;20440;-63
2021/11/05 03:33:13;;;;;;;9.13;7.73;;;6.80;99.90;;;;;;5050934;28;20448;-64
2021/11/05 03:35:40;;;;;;;10.10;7.53;;;6.80;99.90;;;;;;5050947;28;20456;-62
2021/11/05 03:38:07;;;;;;;8.70;6.67;;;6.80;99.90;;;;;;5050032;28;20444;-63
2021/11/05 03:40:36;;;;;;;8.17;6.20;;;6.80;99.90;;;;;;5050981;28;20451;-63
2021/11/05 03:43:03;;;;;;;10.10;6.90;;;6.80;99.90;;;;;;5050390;28;20876;-63
2021/11/05 03:45:30;;;;;;;8.33;7.47;;;6.80;99.90;;;;;;5050942;28;20510;-63
2021/11/05 03:47:58;;;;;;;9.27;6.43;;;6.80;99.90;;;;;;5049881;28;20454;-61
2021/11/05 03:50:25;;;;;;;6.73;6.03;;;6.80;99.90;;;;;;5050727;28;20968;-64
2021/11/05 03:52:52;;;;;;;6.87;6.17;;;6.90;99.90;;;;;;5050599;28;20444;-63
2021/11/05 03:55:19;;;;;;;7.30;6.30;;;6.80;99.90;;;;;;5050718;28;20825;-63
2021/11/05 03:57:45;;;;;;;7.47;6.40;;;6.80;99.90;;;;;;5049525;28;20531;-64
2021/11/05 04:00:13;;;;;;;6.63;5.97;;;6.80;99.90;;;;;;5050824;28;20840;-64
2021/11/05 04:02:41;;;;;;;12.77;8.40;;;6.80;99.90;;;;;;5050718;28;20594;-63
2021/11/05 04:05:09;;;;;;;9.10;7.20;;;6.80;99.90;;;;;;5050366;28;20483;-64
2021/11/05 04:07:36;;;;;;;9.23;7.67;;;6.90;99.90;;;;;;5049722;28;20448;-63
2021/11/05 04:10:03;;;;;;;7.10;6.10;;;6.90;99.90;;;;;;5050579;28;20470;-66
2021/11/05 04:12:30;;;;;;;8.53;7.63;;;6.90;99.90;;;;;;5050448;28;20436;-64
2021/11/05 04:14:57;;;;;;;13.20;9.57;;;6.90;99.90;;;;;;5050461;28;20464;-64
2021/11/05 04:17:24;;;;;;;7.57;6.77;;;7.00;99.90;;;;;;5049344;28;20456;-64
2021/11/05 04:19:51;;;;;;;9.20;7.27;;;6.90;99.90;;;;;;5050430;28;20448;-63
2021/11/05 04:22:19;;;;;;;8.60;6.53;;;7.00;99.90;;;;;;5049738;28;20456;-63
2021/11/05 04:24:46;;;;;;;7.50;6.70;;;7.00;99.90;;;;;;5050047;28;20468;-64
2021/11/05 04:27:14;;;;;;;7.60;6.90;;;7.00;99.90;;;;;;5049213;28;20471;-64
2021/11/05 04:29:41;;;;;;;8.97;7.13;;;7.10;99.90;;;;;;5050120;28;20450;-62
2021/11/05 04:32:09;;;;;;;8.13;6.83;;;7.10;99.90;;;;;;5049811;28;21034;-64
2021/11/05 04:34:35;;;;;;;9.17;8.00;;;7.10;99.90;;;;;;5050262;28;20457;-63
2021/11/05 04:37:02;;;;;;;8.80;7.90;;;7.10;99.90;;;;;;5049252;28;20463;-65
2021/11/05 04:39:30;;;;;;;8.47;7.53;;;7.10;99.90;;;;;;5050206;28;20440;-64
2021/11/05 04:41:57;;;;;;;9.40;7.87;;;7.10;99.90;;;;;;5049929;28;21025;-62
2021/11/05 04:44:24;;;;;;;8.30;7.50;;;7.10;99.90;;;;;;5049777;28;20450;-64
2021/11/05 04:46:51;;;;;;;7.70;6.90;;;7.10;99.90;;;;;;5049186;28;20506;-64
2021/11/05 04:49:18;;;;;;;8.33;7.40;;;7.10;99.90;;;;;;5049825;28;20949;-62
2021/11/05 04:51:45;;;;;;;7.57;6.40;;;7.10;99.90;;;;;;5049296;28;20462;-65
2021/11/05 04:54:12;;;;;;;8.60;7.40;;;7.10;99.90;;;;;;5049778;28;20858;-63
2021/11/05 04:56:40;;;;;;;9.03;7.40;;;7.10;99.90;;;;;;5049236;28;20446;-64
2021/11/05 04:59:07;;;;;;;8.80;7.87;;;7.10;99.90;;;;;;5049901;28;21147;-64
2021/11/05 05:01:34;;;;;;;8.03;7.20;;;7.00;99.90;;;;;;5049566;28;20450;-64
2021/11/05 05:04:00;;;;;;;8.13;7.30;;;7.00;99.90;;;;;;5049830;28;20447;-63
2021/11/05 05:06:27;;;;;;;8.67;7.00;;;7.00;99.90;;;;;;5048748;28;20484;-63
2021/11/05 05:08:54;;;;;;;9.20;7.50;;;7.00;99.90;;;;;;5049986;28;20444;-63
2021/11/05 05:11:21;;;;;;;8.83;7.37;;;7.00;99.90;;;;;;5052463;28;21010;-63
2021/11/05 05:13:49;;;;;;;7.60;6.80;;;7.00;99.90;;;;;;5053827;28;20949;-63
2021/11/05 05:16:16;;;;;;;7.67;6.87;;;7.00;99.90;;;;;;5053377;28;20985;-63
2021/11/05 05:18:44;;;;;;;8.07;6.73;;;7.00;99.90;;;;;;5053980;28;20448;-64
2021/11/05 05:21:11;;;;;;;7.77;6.97;;;7.00;99.90;;;;;;5053529;28;20452;-63
2021/11/05 05:23:38;;;;;;;8.83;7.93;;;7.00;99.90;;;;;;5053873;28;20455;-65
2021/11/05 05:26:05;;;;;;;7.83;6.87;;;6.90;99.90;;;;;;5054136;28;20484;-63
2021/11/05 05:28:32;;;;;;;9.47;7.20;;;6.90;99.90;;;;;;5052909;28;20447;-63
2021/11/05 05:31:01;;;;;;;9.40;7.80;;;6.90;99.90;;;;;;5053895;28;20447;-64
2021/11/05 05:33:28;;;;;;;8.60;7.57;;;6.90;99.90;;;;;;5052810;28;20534;-64
2021/11/05 05:35:54;;;;;;;8.73;7.83;;;7.00;99.90;;;;;;5053650;28;20464;-64
2021/11/05 05:38:21;;;;;;;9.23;7.50;;;7.00;99.90;;;;;;5052794;28;20767;-63
2021/11/05 05:40:48;;;;;;;10.30;7.63;;;7.00;99.90;;;;;;5053213;28;20448;-64
2021/11/05 05:43:15;;;;;;;7.40;6.70;;;7.00;99.90;;;;;;5052649;28;20447;-64
2021/11/05 05:45:42;;;;;;;8.77;7.83;;;7.00;99.90;;;;;;5053327;28;20482;-63
2021/11/05 05:48:10;;;;;;;7.90;6.83;;;7.00;99.90;;;;;;5052122;28;20440;-64
2021/11/05 05:50:37;;;;;;;7.20;6.13;;;7.00;99.90;;;;;;5053104;28;20444;-64
2021/11/05 05:53:04;;;;;;;8.17;6.60;;;7.00;99.90;;;;;;5052846;28;20450;-63
2021/11/05 05:55:31;;;;;;;7.43;6.63;;;7.00;99.90;;;;;;5053290;28;20524;-63
2021/11/05 05:57:58;;;;;;;8.80;6.60;;;7.00;99.90;;;;;;5052054;28;20976;-63
2021/11/05 06:00:24;;;;;;;7.90;5.70;;;7.00;99.90;;;;;;5052861;28;20471;-63
2021/11/05 06:02:51;;;;;;;6.93;6.23;;;7.00;99.90;;;;;;5052617;28;20888;-64
2021/11/05 06:05:19;;;;;;;6.57;5.97;;;7.00;99.90;;;;;;5052356;28;20463;-63
2021/11/05 06:07:46;;;;;;;7.90;6.17;;;7.00;99.90;;;;;;5051582;28;20444;-62
2021/11/05 06:10:13;;;;;;;6.27;5.50;;;7.00;99.90;;;;;;5052192;28;20459;-64
2021/11/05 06:12:40;;;;;;;5.90;5.30;;;7.00;99.90;;;;;;5051964;28;20834;-63
2021/11/05 06:15:08;;;;;;;5.23;4.23;;;7.00;99.90;;;;;;5052046;28;20506;-64
2021/11/05 06:17:34;;;;;;;5.63;4.77;;;7.00;99.90;;;;;;5051326;28;20944;-61
2021/11/05 06:20:03;;;;;;;6.00;5.37;;;7.00;99.90;;;;;;5052155;28;20830;-61
2021/11/05 06:22:31;;;;;;;6.97;5.50;;;7.00;99.90;;;;;;5050469;28;20487;-62
2021/11/05 06:24:59;;;;;;;7.00;5.03;;;7.00;99.90;;;;;;5051985;28;20470;-63
2021/11/05 06:27:27;;;;;;;8.23;4.90;;;7.10;99.90;;;;;;5051143;28;20480;-64
2021/11/05 06:29:54;;;;;;;5.60;5.00;;;7.00;99.90;;;;;;5051759;28;20514;-63
2021/11/05 06:32:21;;;;;;;5.93;4.00;;;7.10;99.90;;;;;;5051525;28;20448;-64
2021/11/05 06:34:49;;;;;;;6.10;4.50;;;7.10;99.90;;;;;;5051944;28;20571;-63
2021/11/05 06:37:16;;;;;;;5.83;4.40;;;7.10;99.90;;;;;;5051165;28;20444;-63
2021/11/05 06:39:44;;;;;;;3.40;2.93;;;7.10;99.90;;;;;;5051863;28;20447;-63
2021/11/05 06:42:13;;;;;;;5.43;4.20;;;7.10;99.90;;;;;;5051266;28;21130;-61
2021/11/05 06:44:40;;;;;;;5.47;4.27;;;7.10;99.90;;;;;;5051907;28;20559;-63
2021/11/05 06:47:07;;;;;;;4.90;4.17;;;7.10;99.90;;;;;;5051135;28;20486;-63
2021/11/05 06:49:33;;;;;;;5.73;4.00;;;7.10;99.90;;;;;;5051746;28;21104;-63
2021/11/05 06:52:00;;;;;;;5.53;5.03;;;7.10;99.90;;;;;;5051047;28;20818;-63
2021/11/05 06:54:27;;;;;;;5.37;4.03;;;7.10;99.90;;;;;;5051723;28;20479;-65
2021/11/05 06:56:55;;;;;;;5.30;4.13;;;7.20;99.90;;;;;;5050522;28;20470;-65
2021/11/05 06:59:22;;;;;;;4.80;3.60;;;7.20;99.90;;;;;;5051531;28;20854;-65
2021/11/05 07:01:49;;;;;;;5.13;3.57;;;7.20;99.90;;;;;;5051120;28;20452;-63
2021/11/05 07:04:16;;;;;;;4.80;4.03;;;7.30;99.90;;;;;;5051498;28;20440;-63
2021/11/05 07:06:45;;;;;;;6.17;3.33;;;7.20;99.90;;;;;;5050928;28;20483;-64
2021/11/05 07:09:13;;;;;;;4.60;3.80;;;7.30;99.90;;;;;;5051606;28;20455;-64
2021/11/05 07:11:40;;;;;;;4.30;3.03;;;7.30;99.90;;;;;;5050830;28;20475;-64
2021/11/05 07:14:09;;;;;;;3.83;3.00;;;7.30;99.90;;;;;;5051461;28;20824;-64
2021/11/05 07:16:36;;;;;;;4.30;3.40;;;7.30;99.90;;;;;;5050371;28;20466;-63
2021/11/05 07:19:03;;;;;;;3.60;3.00;;;7.30;99.90;;;;;;5051218;28;20452;-63
2021/11/05 07:21:31;;;;;;;4.43;3.37;;;7.30;99.90;;;;;;5050741;28;20444;-64
2021/11/05 07:24:02;;;;;;;4.97;4.10;;;7.30;99.90;;;;;;5051151;28;20448;-63
2021/11/05 07:26:33;;;;;;;6.23;4.00;;;7.30;99.90;;;;;;5050214;28;21060;-65
2021/11/05 07:29:01;;;;;;;4.67;3.57;;;7.40;99.90;;;;;;5051212;28;20440;-63
2021/11/05 07:31:30;;;;;;;4.13;3.30;;;7.40;99.90;;;;;;5050697;28;20506;-63
2021/11/05 07:33:57;;;;;;;4.80;3.23;;;7.40;99.90;;;;;;5050981;28;20444;-63
2021/11/05 07:36:23;;;;;;;4.90;3.87;;;7.40;99.90;;;;;;5049937;28;20828;-63
2021/11/05 07:38:50;;;;;;;8.20;5.17;;;7.40;99.90;;;;;;5050560;28;20446;-62
2021/11/05 07:41:18;;;;;;;4.80;3.50;;;7.50;99.90;;;;;;5050603;28;20440;-64
2021/11/05 07:43:45;;;;;;;5.23;4.20;;;7.50;99.90;;;;;;5050936;28;20451;-62
2021/11/05 07:46:11;;;;;;;5.40;3.87;;;7.50;99.90;;;;;;5050781;28;20490;-62
2021/11/05 07:48:40;;;;;;;4.67;3.40;;;7.50;99.90;;;;;;5050178;28;20452;-62
2021/11/05 07:51:07;;;;;;;4.60;4.00;;;7.50;99.90;;;;;;5050651;28;20482;-63
2021/11/05 07:53:34;;;;;;;5.20;4.30;;;7.70;99.90;;;;;;5050599;28;20454;-63
2021/11/05 07:56:01;;;;;;;4.63;4.13;;;7.80;99.90;;;;;;5050751;28;20460;-62
2021/11/05 07:58:28;;;;;;;5.10;4.30;;;7.80;99.90;;;;;;5049882;28;20443;-64
2021/11/05 08:00:55;;;;;;;5.20;4.50;;;7.90;99.90;;;;;;5050476;28;20444;-64
2021/11/05 08:03:22;;;;;;;4.30;3.83;;;7.90;99.90;;;;;;5049895;28;20443;-64
2021/11/05 08:05:50;;;;;;;4.90;3.50;;;7.90;99.90;;;;;;5050491;28;20537;-62
2021/11/05 08:08:17;;;;;;;7.60;3.80;;;7.90;99.90;;;;;;5049504;28;20486;-62
2021/11/05 08:10:44;;;;;;;4.70;3.43;;;7.90;99.90;;;;;;5050090;28;20543;-64
2021/11/05 08:13:13;;;;;;;4.20;3.27;;;7.80;99.90;;;;;;5049800;28;20442;-61
2021/11/05 08:15:41;;;;;;;4.90;3.50;;;7.80;99.90;;;;;;5050408;28;20472;-64
2021/11/05 08:18:08;;;;;;;6.27;3.63;;;7.80;99.90;;;;;;5048991;28;20440;-62
2021/11/05 08:20:35;;;;;;;4.87;3.10;;;8.00;99.90;;;;;;5050195;28;20454;-65
2021/11/05 08:23:03;;;;;;;5.83;4.00;;;8.10;99.90;;;;;;5049461;28;20448;-64
2021/11/05 08:25:31;;;;;;;5.10;3.77;;;8.30;99.90;;;;;;5049948;28;20471;-64
2021/11/05 08:27:58;;;;;;;5.37;3.73;;;8.50;99.90;;;;;;5049043;28;20515;-62
2021/11/05 08:30:26;;;;;;;3.77;3.37;;;8.60;99.90;;;;;;5049884;28;20459;-60
2021/11/05 08:32:57;;;;;;;5.40;3.70;;;8.80;99.90;;;;;;5049401;28;20460;-64
2021/11/05 08:35:26;;;;;;;3.73;3.03;;;9.00;99.90;;;;;;5049880;28;21012;-63
2021/11/05 08:37:53;;;;;;;3.73;3.33;;;9.00;99.90;;;;;;5048973;28;20447;-64
2021/11/05 08:40:22;;;;;;;3.90;3.47;;;9.20;99.90;;;;;;5049482;28;20448;-63
2021/11/05 08:42:51;;;;;;;3.57;3.17;;;9.20;99.90;;;;;;5049339;28;20475;-64
2021/11/05 08:45:18;;;;;;;3.07;2.70;;;9.30;99.90;;;;;;5048659;28;20478;-64
2021/11/05 08:47:45;;;;;;;3.90;3.03;;;9.40;99.90;;;;;;5048825;28;20502;-63
2021/11/05 08:50:15;;;;;;;4.30;3.00;;;9.50;99.90;;;;;;5049296;28;20451;-64
2021/11/05 08:52:42;;;;;;;3.37;2.60;;;9.50;99.90;;;;;;5052572;28;20532;-65
2021/11/05 08:55:11;;;;;;;4.07;3.47;;;9.30;99.90;;;;;;5048735;28;20470;-65
2021/11/05 08:57:40;;;;;;;4.10;3.40;;;9.20;99.90;;;;;;5042027;28;20478;-64
2021/11/05 09:00:10;;;;;;;4.40;3.90;;;9.20;99.90;;;;;;5046273;28;20454;-64
2021/11/05 09:02:37;;;;;;;4.37;3.13;;;9.30;99.90;;;;;;5044996;28;20957;-62
2021/11/05 09:05:05;;;;;;;3.60;2.70;;;9.20;99.90;;;;;;5046381;28;20471;-63
2021/11/05 09:07:31;;;;;;;4.00;3.13;;;9.20;99.90;;;;;;5040176;28;20480;-64
2021/11/05 09:09:58;;;;;;;3.93;3.20;;;9.20;99.90;;;;;;5040158;28;20472;-63
2021/11/05 09:12:25;;;;;;;4.90;2.83;;;9.40;99.90;;;;;;5038918;28;20450;-63
2021/11/05 09:14:53;;;;;;;6.20;3.50;;;9.50;99.90;;;;;;5035385;28;20864;-62
2021/11/05 09:17:20;;;;;;;4.37;3.37;;;9.60;99.90;;;;;;5036087;28;20436;-63
2021/11/05 09:19:47;;;;;;;4.07;3.10;;;9.60;99.90;;;;;;5038108;28;20444;-64
2021/11/05 09:22:14;;;;;;;3.67;2.97;;;9.70;99.90;;;;;;5038203;28;20510;-64
2021/11/05 09:24:41;;;;;;;3.73;3.10;;;9.80;99.90;;;;;;5036460;28;20484;-63
2021/11/05 09:27:09;;;;;;;3.50;2.80;;;10.00;99.90;;;;;;5035404;28;20487;-64
2021/11/05 09:29:36;;;;;;;5.50;3.47;;;10.20;99.90;;;;;;5036748;28;20463;-62
2021/11/05 09:32:05;;;;;;;4.00;3.40;;;10.50;99.90;;;;;;5038257;28;20499;-64
2021/11/05 09:34:32;;;;;;;4.87;3.40;;;10.80;99.90;;;;;;5046581;28;21064;-64
2021/11/05 09:37:00;;;;;;;3.80;2.80;;;11.10;99.90;;;;;;5048730;28;20447;-62
2021/11/05 09:39:27;;;;;;;4.03;3.43;;;11.40;99.90;;;;;;5042714;28;20448;-63
2021/11/05 09:41:54;;;;;;;5.63;3.03;;;11.60;99.90;;;;;;5039550;28;20456;-63
2021/11/05 09:44:22;;;;;;;4.70;2.90;;;11.70;99.90;;;;;;5048771;28;20442;-62
2021/11/05 09:46:49;;;;;;;5.47;2.87;;;11.60;99.90;;;;;;5049931;28;20472;-62
2021/11/05 09:49:20;;;;;;;3.97;3.17;;;11.50;99.90;;;;;;5056937;28;20534;-63
2021/11/05 09:51:47;;;;;;;6.83;3.60;;;11.50;99.90;;;;;;5054268;28;20489;-62
2021/11/05 09:54:18;;;;;;;3.93;2.83;;;11.10;99.90;;;;;;5045355;28;20482;-62
2021/11/05 09:56:47;;;;;;;3.90;3.00;;;10.70;99.90;;;;;;5037951;28;20932;-62
2021/11/05 09:59:14;;;;;;;3.80;3.17;;;10.50;99.90;;;;;;5043307;28;20452;-62
2021/11/05 10:01:41;;;;;;;6.20;4.50;;;10.40;99.90;;;;;;5040964;28;20534;-63
2021/11/05 10:04:08;;;;;;;4.07;3.23;;;10.30;99.90;;;;;;5044055;28;20447;-64
2021/11/05 10:06:37;;;;;;;5.17;4.00;;;10.20;99.90;;;;;;5045432;28;20994;-61
2021/11/05 10:09:14;;;;;;;5.50;4.60;;;10.20;99.90;;;;;;5056471;28;20443;-61
2021/11/05 10:11:42;;;;;;;4.67;4.20;;;10.20;99.90;;;;;;5044217;28;20456;-60
2021/11/05 10:14:18;;;;;;;5.40;4.50;;;10.20;99.90;;;;;;5055398;28;20436;-62
2021/11/05 10:17:00;;;;;;;4.67;4.10;;;10.20;99.90;;;;;;5050163;28;20770;-62
2021/11/05 10:19:47;;;;;;;5.70;4.90;;;10.30;99.90;;;;;;5047042;28;20443;-62
2021/11/05 10:22:34;;;;;;;6.10;5.20;;;10.20;99.90;;;;;;5051415;28;20435;-62
2021/11/05 10:25:21;;;;;;;6.60;5.20;;;10.20;99.90;;;;;;5055953;28;20512;-62
2021/11/05 10:27:59;;;;;;;7.10;6.40;;;10.10;99.90;;;;;;5054409;28;20476;-62
2021/11/05 10:30:25;;;;;;;8.03;6.10;;;10.00;99.90;;;;;;5052759;28;20468;-60
2021/11/05 10:32:57;;;;;;;8.40;7.10;;;10.00;99.90;;;;;;5054987;28;20489;-61
2021/11/05 10:35:24;;;;;;;7.80;6.77;;;10.00;99.90;;;;;;5059357;28;20237;-64
2021/11/05 10:37:56;;;;;;;7.20;6.20;;;10.20;99.90;;;;;;5062312;28;20444;-62
2021/11/05 10:40:24;;;;;;;6.40;5.50;;;10.40;99.90;;;;;;5052948;28;20486;-63
2021/11/05 10:42:51;;;;;;;7.10;6.40;;;10.60;99.90;;;;;;5058235;28;20453;-62
2021/11/05 10:45:19;;;;;;;8.40;6.17;;;10.80;99.90;;;;;;5052159;28;21074;-62
2021/11/05 10:48:03;;;;;;;6.30;5.67;;;11.10;99.90;;;;;;5053263;28;20521;-63
2021/11/05 10:50:35;;;;;;;6.97;6.27;;;11.40;99.90;;;;;;5049484;28;20835;-62
2021/11/05 10:53:07;;;;;;;6.73;6.07;;;11.60;99.90;;;;;;5055927;28;20438;-60
2021/11/05 10:55:46;;;;;;;5.50;4.93;;;11.90;99.90;;;;;;5051635;28;20479;-62
2021/11/05 10:58:24;;;;;;;6.00;5.10;;;12.00;99.90;;;;;;5050694;28;20444;-63
2021/11/05 11:00:54;;;;;;;6.00;5.40;;;12.00;99.90;;;;;;5044315;28;20926;-63
2021/11/05 11:03:25;;;;;;;5.10;4.60;;;12.20;99.90;;;;;;5038837;28;20444;-64
2021/11/05 11:05:53;;;;;;;8.03;5.17;;;12.20;99.90;;;;;;5037027;28;20476;-62
2021/11/05 11:08:26;;;;;;;7.10;5.63;;;11.90;99.90;;;;;;5042891;28;20567;-62
2021/11/05 11:10:55;;;;;;;6.33;5.70;;;12.10;99.90;;;;;;5039197;28;20457;-64
2021/11/05 11:13:34;;;;;;;5.97;5.10;;;12.30;99.90;;;;;;5048982;28;20444;-62
2021/11/05 11:16:03;;;;;;;5.50;5.00;;;12.60;99.90;;;;;;5043744;28;20471;-63
2021/11/05 11:18:29;;;;;;;4.97;4.30;;;12.80;99.90;;;;;;5046074;28;21000;-64
2021/11/05 11:20:57;;;;;;;4.70;4.30;;;12.90;99.90;;;;;;5045143;28;20436;-63
2021/11/05 11:23:25;;;;;;;5.60;5.10;;;13.10;99.90;;;;;;5044563;28;20444;-63
2021/11/05 11:25:53;;;;;;;5.20;4.60;;;13.40;99.90;;;;;;5047359;28;20498;-63
2021/11/05 11:28:20;;;;;;;5.17;4.50;;;13.30;99.90;;;;;;5048150;28;20482;-63
2021/11/05 11:30:48;;;;;;;5.90;5.30;;;13.30;99.90;;;;;;5044495;28;20757;-62
2021/11/05 11:33:15;;;;;;;7.60;5.83;;;13.10;99.90;;;;;;5046756;28;20444;-64
2021/11/05 11:35:45;;;;;;;7.53;6.30;;;13.10;99.90;;;;;;5040416;28;20468;-63
2021/11/05 11:38:17;;;;;;;6.83;6.17;;;12.70;99.90;;;;;;5036824;28;20451;-63
2021/11/05 11:40:48;;;;;;;7.00;5.40;;;12.50;99.90;;;;;;5045511;28;20447;-63
2021/11/05 11:43:16;;;;;;;6.77;6.07;;;12.50;99.90;;;;;;5040671;28;20436;-62
2021/11/05 11:45:49;;;;;;;5.70;5.13;;;12.20;99.90;;;;;;5048282;28;20455;-62
2021/11/05 11:48:43;;;;;;;7.57;6.57;;;11.80;99.90;;;;;;5047961;28;20971;-63
2021/11/05 11:51:28;;;;;;;7.80;6.60;;;11.40;99.90;;;;;;5040358;28;20964;-64
2021/11/05 11:53:59;;;;;;;6.63;6.00;;;11.40;99.90;;;;;;5046276;28;20444;-64
2021/11/05 11:56:35;;;;;;;7.93;7.13;;;11.30;99.90;;;;;;5045489;28;20578;-62
2021/11/05 11:59:05;;;;;;;8.23;7.30;;;11.20;99.90;;;;;;5045757;28;20513;-64
2021/11/05 12:01:35;;;;;;;9.50;8.50;;;11.10;99.90;;;;;;5045280;28;21211;-64
2021/11/05 12:04:05;;;;;;;8.60;6.90;;;11.00;99.90;;;;;;5045533;28;20444;-64
2021/11/05 12:07:02;;;;;;;8.03;7.20;;;10.90;99.90;;;;;;5042424;28;20970;-62
2021/11/05 12:09:32;;;;;;;7.83;7.03;;;10.80;99.90;;;;;;5045052;28;20479;-64
2021/11/05 12:12:34;;;;;;;6.73;5.53;;;10.90;99.90;;;;;;5046441;28;20498;-63
2021/11/05 12:15:15;;;;;;;7.83;6.77;;;11.00;99.90;;;;;;5045942;28;20541;-62
2021/11/05 12:18:08;;;;;;;6.83;5.63;;;11.20;99.90;;;;;;5046720;28;20440;-63
2021/11/05 12:20:38;;;;;;;8.30;7.50;;;11.30;99.90;;;;;;5036019;28;20456;-63
2021/11/05 12:23:17;;;;;;;7.90;6.20;;;11.40;99.90;;;;;;5046630;28;20456;-63
2021/11/05 12:25:46;;;;;;;6.57;5.73;;;11.30;99.90;;;;;;5047249;28;20460;-64
2021/11/05 12:28:19;;;;;;;8.07;5.87;;;11.40;99.90;;;;;;5044702;28;20650;-64
2021/11/05 12:30:48;;;;;;;7.30;6.07;;;11.60;99.90;;;;;;5045625;28;20435;-64
2021/11/05 12:33:31;;;;;;;7.53;6.00;;;11.80;99.90;;;;;;5045247;28;20436;-63
2021/11/05 12:35:59;;;;;;;7.23;5.97;;;11.80;99.90;;;;;;5045325;28;20514;-64
2021/11/05 12:38:26;;;;;;;6.60;5.60;;;11.90;99.90;;;;;;5039146;28;20456;-62
2021/11/05 12:41:02;;;;;;;5.73;5.13;;;12.00;99.90;;;;;;5043973;28;21090;-64
2021/11/05 12:43:41;;;;;;;6.97;6.17;;;12.10;99.90;;;;;;5044935;28;21004;-63
2021/11/05 12:46:12;;;;;;;8.50;6.17;;;12.10;99.90;;;;;;5044725;28;20467;-63
2021/11/05 12:48:49;;;;;;;7.70;6.90;;;12.20;99.90;;;;;;5044780;28;20584;-64
2021/11/05 12:51:18;;;;;;;8.93;7.13;;;12.20;99.90;;;;;;5045226;28;20436;-63
2021/11/05 12:53:54;;;;;;;8.00;7.00;;;12.20;99.90;;;;;;5044950;28;20439;-66
2021/11/05 12:56:23;;;;;;;10.33;8.13;;;12.00;99.90;;;;;;5044968;28;20463;-63
2021/11/05 12:58:52;;;;;;;9.10;7.17;;;11.70;99.90;;;;;;5045504;28;20440;-63
2021/11/05 13:01:20;;;;;;;8.87;6.87;;;11.30;99.90;;;;;;5044402;28;20525;-63